Time;durP1;ratioP1;P1;durP2;ratioP2;P2;SDS_P1;SDS_P2;PMS_P1;PMS_P2;Temp;Humidity;BMP_temperature;BMP_pressure;BME280_temperature;BME280_humidity;BME280_pressure;Samples;Min_cycle;Max_cycle;Signal;HPM_P1;HPM_P2
2023/05/08 00:07:40;;;;;;;;;;;;;;;13.72;100.00;98051.16;18566741;32;19953;-56
2023/05/08 00:17:44;;;;;;;;;;;;;;;13.71;100.00;98044.09;18566125;32;20313;-55
2023/05/08 00:27:48;;;;;;;;;;;;;;;13.71;100.00;98046.03;18551537;31;19948;-57
2023/05/08 00:37:52;;;;;;;;;;;;;;;13.70;100.00;98044.38;18550656;31;19957;-57
2023/05/08 00:47:58;;;;;;;;;;;;;;;13.69;100.00;98053.62;18564251;32;19980;-57
2023/05/08 00:58:04;;;;;;;;;;;;;;;13.69;100.00;98059.88;18563719;32;19986;-55
2023/05/08 01:08:08;;;;;;;;;;;;;;;13.69;100.00;98064.50;18548625;32;19956;-56
2023/05/08 01:18:20;;;;;;;;;;;;;;;13.70;100.00;98068.84;18562360;32;19968;-56
2023/05/08 01:28:41;;;;;;;;;;;;;;;13.70;100.00;98071.56;18562412;32;19990;-56
2023/05/08 01:38:51;;;;;;;;;;;;;;;13.69;100.00;98080.81;18561458;32;19987;-56
2023/05/08 01:49:14;;;;;;;;;;;;;;;13.68;100.00;98068.31;18561894;32;19960;-55
2023/05/08 01:59:21;;;;;;;;;;;;;;;13.67;100.00;98066.69;18560397;32;19990;-54
2023/05/08 02:09:25;;;;;;;;;;;;;;;13.68;100.00;98068.31;18561168;32;19953;-55
2023/05/08 02:19:29;;;;;;;;;;;;;;;13.67;100.00;98067.50;18561936;31;19995;-54
2023/05/08 02:29:32;;;;;;;;;;;;;;;13.66;100.00;98059.63;18572661;32;20395;-55
2023/05/08 02:39:37;;;;;;;;;;;;;;;13.65;100.00;98066.97;18572024;32;19952;-54
2023/05/08 02:49:56;;;;;;;;;;;;;;;13.65;100.00;98068.88;18571757;32;19963;-52
2023/05/08 03:00:19;;;;;;;;;;;;;;;13.64;100.00;98070.78;18571238;32;19986;-52
2023/05/08 03:10:36;;;;;;;;;;;;;;;13.63;100.00;98080.03;18570070;32;19953;-55
2023/05/08 03:20:53;;;;;;;;;;;;;;;13.63;100.00;98071.06;18555080;32;20513;-55
2023/05/08 03:30:57;;;;;;;;;;;;;;;13.59;100.00;98062.66;18568327;32;19998;-56
2023/05/08 03:41:02;;;;;;;;;;;;;;;13.59;100.00;98062.66;18568308;32;19949;-56
2023/05/08 03:51:05;;;;;;;;;;;;;;;13.59;100.00;98070.00;18567949;32;19949;-56
2023/05/08 04:01:17;;;;;;;;;;;;;;;13.56;100.00;98077.59;18567324;32;19967;-55
2023/05/08 04:11:40;;;;;;;;;;;;;;;13.55;100.00;98076.00;18566654;32;19961;-56
2023/05/08 04:21:45;;;;;;;;;;;;;;;13.55;100.00;98070.56;18566089;32;19960;-57
2023/05/08 04:31:50;;;;;;;;;;;;;;;13.58;100.00;98085.50;18565383;32;19993;-57
2023/05/08 04:42:01;;;;;;;;;;;;;;;13.60;100.00;98088.75;18564219;32;19953;-55
2023/05/08 04:52:06;;;;;;;;;;;;;;;13.66;100.00;98094.94;18551573;32;19952;-56
2023/05/08 05:02:14;;;;;;;;;;;;;;;13.72;100.00;98089.22;18563282;31;20030;-55
2023/05/08 05:12:23;;;;;;;;;;;;;;;13.85;100.00;98095.97;18536566;32;20043;-56
2023/05/08 05:22:27;;;;;;;;;;;;;;;14.00;100.00;98102.38;18562564;32;19956;-57
2023/05/08 05:32:29;;;;;;;;;;;;;;;14.09;100.00;98108.84;18562041;32;19975;-56
2023/05/08 05:42:32;;;;;;;;;;;;;;;14.21;100.00;98116.63;18561367;32;19965;-57
2023/05/08 05:52:35;;;;;;;;;;;;;;;14.28;100.00;98119.88;18561386;32;20324;-57
2023/05/08 06:02:38;;;;;;;;;;;;;;;14.35;100.00;98116.84;18546972;32;19961;-56
2023/05/08 06:12:41;;;;;;;;;;;;;;;14.44;100.00;98120.56;18560454;32;19987;-55
2023/05/08 06:22:44;;;;;;;;;;;;;;;14.53;100.00;98132.47;18533072;32;19964;-56
2023/05/08 06:32:47;;;;;;;;;;;;;;;14.58;100.00;98139.78;18545825;32;19961;-56
2023/05/08 06:42:51;;;;;;;;;;;;;;;14.73;100.00;98141.56;18559297;32;20290;-57
2023/05/08 06:52:54;;;;;;;;;;;;;;;14.90;100.00;98135.72;18532407;32;19957;-56
2023/05/08 07:02:57;;;;;;;;;;;;;;;15.10;100.00;98150.22;18545261;32;19964;-57
2023/05/08 07:13:20;;;;;;;;;;;;;;;15.39;100.00;98148.28;18568118;32;19968;-57
2023/05/08 07:23:43;;;;;;;;;;;;;;;15.78;100.00;98154.63;18568732;32;19952;-57
2023/05/08 07:33:53;;;;;;;;;;;;;;;16.17;100.00;98148.16;18569054;31;20313;-58
2023/05/08 07:43:59;;;;;;;;;;;;;;;16.46;100.00;98149.91;18568504;32;19969;-58
2023/05/08 07:54:03;;;;;;;;;;;;;;;16.88;100.00;98161.78;18567547;32;19956;-57
2023/05/08 08:04:09;;;;;;;;;;;;;;;17.35;100.00;98166.44;18567307;32;20008;-57
2023/05/08 08:14:15;;;;;;;;;;;;;;;17.98;100.00;98156.72;18566695;32;19996;-57
2023/05/08 08:24:21;;;;;;;;;;;;;;;17.87;100.00;98153.38;18565857;32;20337;-57
2023/05/08 08:34:36;;;;;;;;;;;;;;;17.48;100.00;98162.91;18565539;32;19965;-57
2023/05/08 08:44:45;;;;;;;;;;;;;;;17.35;100.00;98167.25;18564572;31;19952;-57
2023/05/08 08:55:02;;;;;;;;;;;;;;;17.33;100.00;98155.00;18564230;32;19956;-58
2023/05/08 09:05:14;;;;;;;;;;;;;;;17.40;100.00;98158.97;18563395;32;20362;-56
2023/05/08 09:15:20;;;;;;;;;;;;;;;17.72;100.00;98154.50;18562851;32;20276;-57
2023/05/08 09:25:35;;;;;;;;;;;;;;;;;;;;;
2023/05/08 09:36:00;;;;;;;;;;;;;;;18.93;100.00;98158.63;18560746;32;19985;-57
2023/05/08 09:46:21;;;;;;;;;;;;;;;19.23;100.00;98166.38;18561447;32;19980;-57
2023/05/08 09:56:33;;;;;;;;;;;;;;;19.42;100.00;98171.63;18561021;32;20019;-57
2023/05/08 10:06:38;;;;;;;;;;;;;;;19.19;100.00;98174.41;18560888;32;20001;-58
2023/05/08 10:16:54;;;;;;;;;;;;;;;19.16;100.00;98180.53;18560476;32;20039;-57
2023/05/08 10:27:16;;;;;;;;;;;;;;;19.18;100.00;98186.50;18560228;32;19990;-57
2023/05/08 10:37:21;;;;;;;;;;;;;;;18.22;100.00;98183.81;18559816;32;20429;-57
2023/05/08 10:47:26;;;;;;;;;;;;;;;17.69;100.00;98189.84;18570209;32;19996;-58
2023/05/08 10:57:30;;;;;;;;;;;;;;;17.55;100.00;98187.91;18571759;32;19952;-58
2023/05/08 11:07:52;;;;;;;;;;;;;;;17.71;100.00;98163.00;18570963;32;19982;-58
2023/05/08 11:17:56;;;;;;;;;;;;;;;18.33;100.00;98169.94;18570254;32;19987;-58
2023/05/08 11:28:04;;;;;;;;;;;;;;;18.77;100.00;98165.59;18569258;31;19949;-58
2023/05/08 11:38:13;;;;;;;;;;;;;;;19.69;100.00;98153.31;18568421;31;19948;-58
2023/05/08 11:48:18;;;;;;;;;;;;;;;20.56;100.00;98150.72;18568505;32;19985;-58
2023/05/08 11:58:20;;;;;;;;;;;;;;;21.27;100.00;98143.16;18566769;31;20384;-58
2023/05/08 12:08:30;;;;;;;;;;;;;;;21.65;100.00;98151.44;18567089;32;20274;-58
2023/05/08 12:18:34;;;;;;;;;;;;;;;21.66;100.00;98149.50;18566393;32;20322;-58
2023/05/08 12:28:47;;;;;;;;;;;;;;;21.40;100.00;98153.12;18551426;32;20039;-58
2023/05/08 12:38:50;;;;;;;;;;;;;;;21.52;100.00;98157.94;18551055;32;19980;-58
2023/05/08 12:49:00;;;;;;;;;;;;;;;20.91;100.00;98160.88;18564660;32;19960;-58
2023/05/08 12:59:02;;;;;;;;;;;;;;;20.25;100.00;98159.09;18563990;32;19987;-58
2023/05/08 13:09:08;;;;;;;;;;;;;;;19.57;100.00;98149.25;18563019;32;19997;-58
2023/05/08 13:19:14;;;;;;;;;;;;;;;19.34;100.00;98156.75;18562516;31;19996;-58
2023/05/08 13:29:17;;;;;;;;;;;;;;;19.52;100.00;98143.91;18562318;32;19961;-58
2023/05/08 13:39:19;;;;;;;;;;;;;;;19.65;100.00;98133.94;18561442;32;20004;-58
2023/05/08 13:49:23;;;;;;;;;;;;;;;19.96;100.00;98122.91;18547526;32;20008;-59
2023/05/08 13:59:26;;;;;;;;;;;;;;;20.64;100.00;98107.88;18561012;32;19944;-58
2023/05/08 14:09:28;;;;;;;;;;;;;;;21.18;100.00;98112.94;18546651;32;19964;-58
2023/05/08 14:19:31;;;;;;;;;;;;;;;21.48;100.00;98110.22;18553394;32;20282;-58
2023/05/08 14:29:33;;;;;;;;;;;;;;;21.67;100.00;98105.13;18558946;32;20392;-58
2023/05/08 14:39:36;;;;;;;;;;;;;;;21.73;100.00;98102.19;18572030;32;19985;-59
2023/05/08 14:49:38;;;;;;;;;;;;;;;21.80;100.00;98091.44;18572019;32;20015;-58
2023/05/08 14:59:41;;;;;;;;;;;;;;;22.19;100.00;98083.88;18543543;32;19959;-57
2023/05/08 15:09:56;;;;;;;;;;;;;;;22.67;97.71;98085.22;18570650;32;20023;-58
2023/05/08 15:19:58;;;;;;;;;;;;;;;22.69;100.00;98084.88;18555879;32;20313;-58
2023/05/08 15:30:01;;;;;;;;;;;;;;;22.45;100.00;98089.19;18568458;32;19956;-57
2023/05/08 15:40:04;;;;;;;;;;;;;;;21.99;100.00;98082.72;18568386;32;20332;-57
2023/05/08 15:50:07;;;;;;;;;;;;;;;21.77;100.00;98075.59;18568405;32;19957;-57
2023/05/08 16:00:10;;;;;;;;;;;;;;;21.43;100.00;98088.41;18567367;32;19952;-57
2023/05/08 16:10:13;;;;;;;;;;;;;;;21.26;100.00;98084.59;18567186;32;19998;-57
2023/05/08 16:20:16;;;;;;;;;;;;;;;20.93;100.00;98087.94;18552458;32;20401;-57
2023/05/08 16:30:19;;;;;;;;;;;;;;;20.79;100.00;98088.16;18551551;32;19952;-58
2023/05/08 16:40:22;;;;;;;;;;;;;;;21.36;100.00;98097.16;18564566;32;19953;-58
2023/05/08 16:50:25;;;;;;;;;;;;;;;22.54;100.00;98113.88;18564618;32;19961;-58
2023/05/08 17:00:29;;;;;;;;;;;;;;;23.11;100.00;98106.03;18563834;32;19948;-58
2023/05/08 17:10:32;;;;;;;;;;;;;;;22.89;100.00;98090.72;18563664;32;20008;-58
2023/05/08 17:20:39;;;;;;;;;;;;;;;21.93;100.00;98093.13;18548750;32;19967;-57
2023/05/08 17:30:42;;;;;;;;;;;;;;;20.98;100.00;98101.53;18562439;32;20302;-57
2023/05/08 17:40:47;;;;;;;;;;;;;;;19.87;100.00;98113.88;18561687;32;19956;-57
2023/05/08 17:50:50;;;;;;;;;;;;;;;19.06;100.00;98123.22;18560657;32;19952;-56
2023/05/08 18:00:54;;;;;;;;;;;;;;;18.50;100.00;98123.53;18560875;32;19957;-57
2023/05/08 18:10:57;;;;;;;;;;;;;;;18.07;100.00;98148.59;18545654;32;19956;-57
2023/05/08 18:20:59;;;;;;;;;;;;;;;17.70;100.00;98150.44;18560660;32;19984;-57
2023/05/08 18:31:02;;;;;;;;;;;;;;;17.39;100.00;98154.59;18560674;32;20359;-57
2023/05/08 18:41:05;;;;;;;;;;;;;;;17.03;100.00;98159.91;18545337;32;20329;-59
2023/05/08 18:51:08;;;;;;;;;;;;;;;16.62;100.00;98157.84;18532468;32;19980;-58
2023/05/08 19:01:10;;;;;;;;;;;;;;;16.13;100.00;98157.19;18560581;32;19964;-58
2023/05/08 19:11:13;;;;;;;;;;;;;;;15.63;100.00;98152.91;18570888;32;19964;-57
2023/05/08 19:21:16;;;;;;;;;;;;;;;15.20;100.00;98150.94;18555974;32;19957;-57
2023/05/08 19:31:19;;;;;;;;;;;;;;;14.84;100.00;98151.28;18555549;31;19971;-56
2023/05/08 19:41:23;;;;;;;;;;;;;;;14.52;100.00;98140.91;18568494;32;20348;-56
2023/05/08 19:51:25;;;;;;;;;;;;;;;14.16;100.00;98144.69;18568521;32;19990;-57
2023/05/08 20:01:28;;;;;;;;;;;;;;;13.88;100.00;98154.34;18567597;32;20291;-56
2023/05/08 20:11:30;;;;;;;;;;;;;;;13.63;100.00;98164.25;18553066;32;19948;-57
2023/05/08 20:21:34;;;;;;;;;;;;;;;13.47;100.00;98162.69;18566115;32;20016;-56
2023/05/08 20:31:37;;;;;;;;;;;;;;;13.31;100.00;98164.63;18565810;32;20249;-57
2023/05/08 20:41:39;;;;;;;;;;;;;;;13.17;100.00;98180.66;18564937;32;19999;-56
2023/05/08 20:51:42;;;;;;;;;;;;;;;13.07;100.00;98180.69;18550445;32;20008;-55
2023/05/08 21:01:45;;;;;;;;;;;;;;;12.98;100.00;98175.81;18563893;32;19991;-57
2023/05/08 21:11:47;;;;;;;;;;;;;;;13.03;100.00;98174.97;18563278;32;19944;-57
2023/05/08 21:21:50;;;;;;;;;;;;;;;12.97;100.00;98162.50;18562607;31;20016;-57
2023/05/08 21:31:53;;;;;;;;;;;;;;;12.91;100.00;98152.72;18561614;32;19975;-57
2023/05/08 21:41:55;;;;;;;;;;;;;;;12.88;100.00;98148.66;18561613;32;19960;-57
2023/05/08 21:51:58;;;;;;;;;;;;;;;12.80;100.00;98136.47;18561208;32;19956;-58
2023/05/08 22:02:01;;;;;;;;;;;;;;;12.64;100.00;98132.13;18561236;32;19963;-57
2023/05/08 22:12:05;;;;;;;;;;;;;;;12.44;100.00;98131.03;18560485;32;19952;-57
2023/05/08 22:22:07;;;;;;;;;;;;;;;12.30;100.00;98116.41;18560573;32;19994;-57
2023/05/08 22:32:10;;;;;;;;;;;;;;;12.24;100.00;98106.62;18546125;32;19964;-57
2023/05/08 22:42:12;;;;;;;;;;;;;;;12.12;100.00;98107.69;18554923;31;20284;-57
2023/05/08 22:52:15;;;;;;;;;;;;;;;12.01;100.00;98098.75;18571946;32;19971;-57
2023/05/08 23:02:18;;;;;;;;;;;;;;;12.02;100.00;98096.88;18571307;32;19957;-57
2023/05/08 23:12:20;;;;;;;;;;;;;;;12.00;100.00;98080.03;18556727;32;20004;-57
2023/05/08 23:22:23;;;;;;;;;;;;;;;11.86;100.00;98077.81;18556481;32;19961;-57
2023/05/08 23:32:25;;;;;;;;;;;;;;;11.91;100.00;98076.19;18569824;32;20333;-57
2023/05/08 23:42:28;;;;;;;;;;;;;;;12.05;100.00;98074.63;18554800;32;20321;-57
2023/05/08 23:52:30;;;;;;;;;;;;;;;12.03;100.00;98069.47;18567678;32;19983;-57
